sensor_id;sensor_type;location;lat;lon;timestamp;pressure;altitude;pressure_sealevel;temperature;humidity
80248;BME280;69560;52.206;21.018;2023-06-05T00:00:40;100837.91;;;17.42;32.18
80248;BME280;69560;52.206;21.018;2023-06-05T00:03:31;100842.70;;;17.38;32.26
80248;BME280;69560;52.206;21.018;2023-06-05T00:05:58;100839.67;;;17.35;32.34
80248;BME280;69560;52.206;21.018;2023-06-05T00:08:31;100842.46;;;17.30;32.41
80248;BME280;69560;52.206;21.018;2023-06-05T00:11:05;100840.21;;;17.28;32.44
80248;BME280;69560;52.206;21.018;2023-06-05T00:13:34;100841.67;;;17.28;32.61
80248;BME280;69560;52.206;21.018;2023-06-05T00:16:01;100839.17;;;17.27;32.65
80248;BME280;69560;52.206;21.018;2023-06-05T00:18:30;100840.39;;;17.26;32.68
80248;BME280;69560;52.206;21.018;2023-06-05T00:20:57;100836.77;;;17.25;32.82
80248;BME280;69560;52.206;21.018;2023-06-05T00:23:24;100840.69;;;17.24;32.86
80248;BME280;69560;52.206;21.018;2023-06-05T00:25:51;100841.17;;;17.22;32.88
80248;BME280;69560;52.206;21.018;2023-06-05T00:28:28;100840.29;;;17.21;33.00
80248;BME280;69560;52.206;21.018;2023-06-05T00:30:55;100837.08;;;17.18;32.97
80248;BME280;69560;52.206;21.018;2023-06-05T00:33:22;100839.72;;;17.16;33.00
80248;BME280;69560;52.206;21.018;2023-06-05T00:35:49;100833.31;;;17.14;33.06
80248;BME280;69560;52.206;21.018;2023-06-05T00:38:19;100839.23;;;17.08;33.08
80248;BME280;69560;52.206;21.018;2023-06-05T00:40:48;100838.33;;;17.02;33.17
80248;BME280;69560;52.206;21.018;2023-06-05T00:43:18;100837.38;;;17.00;33.34
80248;BME280;69560;52.206;21.018;2023-06-05T00:48:33;100832.79;;;16.96;33.58
80248;BME280;69560;52.206;21.018;2023-06-05T00:51:01;100834.46;;;16.94;33.62
80248;BME280;69560;52.206;21.018;2023-06-05T00:53:32;100833.74;;;16.92;33.67
80248;BME280;69560;52.206;21.018;2023-06-05T00:56:01;100835.40;;;16.89;33.78
80248;BME280;69560;52.206;21.018;2023-06-05T00:58:30;100835.80;;;16.85;33.84
80248;BME280;69560;52.206;21.018;2023-06-05T01:01:39;100833.79;;;16.83;34.02
80248;BME280;69560;52.206;21.018;2023-06-05T01:04:05;100834.83;;;16.81;34.12
80248;BME280;69560;52.206;21.018;2023-06-05T01:06:32;100834.98;;;16.79;34.26
80248;BME280;69560;52.206;21.018;2023-06-05T01:09:11;100834.26;;;16.79;34.31
80248;BME280;69560;52.206;21.018;2023-06-05T01:12:05;100832.02;;;16.79;34.38
80248;BME280;69560;52.206;21.018;2023-06-05T01:14:35;100832.41;;;16.78;34.44
80248;BME280;69560;52.206;21.018;2023-06-05T01:17:07;100831.29;;;16.77;34.54
80248;BME280;69560;52.206;21.018;2023-06-05T01:19:35;100828.96;;;16.76;34.56
80248;BME280;69560;52.206;21.018;2023-06-05T01:22:05;100829.99;;;16.75;34.54
80248;BME280;69560;52.206;21.018;2023-06-05T01:24:34;100830.64;;;16.73;34.69
80248;BME280;69560;52.206;21.018;2023-06-05T01:32:46;100836.23;;;16.71;34.91
80248;BME280;69560;52.206;21.018;2023-06-05T01:35:21;100836.70;;;16.67;35.05
80248;BME280;69560;52.206;21.018;2023-06-05T01:38:00;100838.91;;;16.64;34.94
80248;BME280;69560;52.206;21.018;2023-06-05T01:40:49;100833.86;;;16.61;35.09
80248;BME280;69560;52.206;21.018;2023-06-05T01:43:44;100836.02;;;16.59;35.07
80248;BME280;69560;52.206;21.018;2023-06-05T01:49:06;100836.79;;;16.51;35.12
80248;BME280;69560;52.206;21.018;2023-06-05T01:51:45;100834.20;;;16.49;35.26
80248;BME280;69560;52.206;21.018;2023-06-05T01:54:20;100834.45;;;16.48;35.37
80248;BME280;69560;52.206;21.018;2023-06-05T01:56:52;100835.17;;;16.49;35.53
80248;BME280;69560;52.206;21.018;2023-06-05T01:59:41;100830.98;;;16.47;35.49
80248;BME280;69560;52.206;21.018;2023-06-05T02:02:10;100831.36;;;16.46;35.60
80248;BME280;69560;52.206;21.018;2023-06-05T02:04:42;100830.95;;;16.44;35.66
80248;BME280;69560;52.206;21.018;2023-06-05T02:07:18;100830.63;;;16.41;35.71
80248;BME280;69560;52.206;21.018;2023-06-05T02:09:54;100832.46;;;16.39;35.79
80248;BME280;69560;52.206;21.018;2023-06-05T02:12:29;100827.97;;;16.37;35.88
80248;BME280;69560;52.206;21.018;2023-06-05T02:14:56;100828.53;;;16.35;35.98
80248;BME280;69560;52.206;21.018;2023-06-05T02:17:24;100828.59;;;16.33;36.02
80248;BME280;69560;52.206;21.018;2023-06-05T02:19:54;100828.66;;;16.31;36.12
80248;BME280;69560;52.206;21.018;2023-06-05T02:22:24;100832.00;;;16.28;36.19
80248;BME280;69560;52.206;21.018;2023-06-05T02:24:51;100830.56;;;16.28;36.35
80248;BME280;69560;52.206;21.018;2023-06-05T02:27:21;100832.63;;;16.27;36.37
80248;BME280;69560;52.206;21.018;2023-06-05T02:29:50;100827.90;;;16.25;36.50
80248;BME280;69560;52.206;21.018;2023-06-05T02:32:25;100826.46;;;16.24;36.47
80248;BME280;69560;52.206;21.018;2023-06-05T02:34:55;100827.41;;;16.21;36.63
80248;BME280;69560;52.206;21.018;2023-06-05T02:37:30;100826.10;;;16.17;36.61
80248;BME280;69560;52.206;21.018;2023-06-05T02:40:16;100829.03;;;16.13;36.65
80248;BME280;69560;52.206;21.018;2023-06-05T02:42:49;100828.52;;;16.07;36.75
80248;BME280;69560;52.206;21.018;2023-06-05T02:45:27;100824.96;;;16.00;36.75
80248;BME280;69560;52.206;21.018;2023-06-05T02:47:54;100825.82;;;15.97;36.79
80248;BME280;69560;52.206;21.018;2023-06-05T02:50:29;100826.59;;;15.93;36.91
80248;BME280;69560;52.206;21.018;2023-06-05T02:52:56;100826.48;;;15.89;36.93
80248;BME280;69560;52.206;21.018;2023-06-05T02:55:23;100826.22;;;15.86;36.96
80248;BME280;69560;52.206;21.018;2023-06-05T02:57:56;100831.02;;;15.84;37.12
80248;BME280;69560;52.206;21.018;2023-06-05T03:00:28;100830.36;;;15.82;37.13
80248;BME280;69560;52.206;21.018;2023-06-05T03:02:58;100831.52;;;15.78;37.29
80248;BME280;69560;52.206;21.018;2023-06-05T03:05:27;100833.41;;;15.74;37.23
80248;BME280;69560;52.206;21.018;2023-06-05T03:08:00;100830.19;;;15.70;37.29
80248;BME280;69560;52.206;21.018;2023-06-05T03:10:41;100828.01;;;15.68;37.42
80248;BME280;69560;52.206;21.018;2023-06-05T03:13:15;100829.59;;;15.67;37.52
80248;BME280;69560;52.206;21.018;2023-06-05T03:15:54;100829.25;;;15.64;37.64
80248;BME280;69560;52.206;21.018;2023-06-05T03:18:24;100834.28;;;15.63;37.58
80248;BME280;69560;52.206;21.018;2023-06-05T03:21:14;100835.55;;;15.63;37.76
80248;BME280;69560;52.206;21.018;2023-06-05T03:23:56;100836.70;;;15.56;37.66
80248;BME280;69560;52.206;21.018;2023-06-05T03:26:29;100836.29;;;15.54;37.80
80248;BME280;69560;52.206;21.018;2023-06-05T03:29:17;100837.77;;;15.50;37.70
80248;BME280;69560;52.206;21.018;2023-06-05T03:31:51;100838.77;;;15.45;37.86
80248;BME280;69560;52.206;21.018;2023-06-05T03:34:21;100837.23;;;15.38;37.82
80248;BME280;69560;52.206;21.018;2023-06-05T03:36:52;100836.95;;;15.34;37.85
80248;BME280;69560;52.206;21.018;2023-06-05T03:39:30;100839.69;;;15.35;38.09
80248;BME280;69560;52.206;21.018;2023-06-05T03:41:58;100841.54;;;15.38;38.20
80248;BME280;69560;52.206;21.018;2023-06-05T03:44:27;100842.89;;;15.43;38.23
80248;BME280;69560;52.206;21.018;2023-06-05T03:46:59;100841.23;;;15.46;38.19
80248;BME280;69560;52.206;21.018;2023-06-05T03:49:32;100840.37;;;15.47;38.14
80248;BME280;69560;52.206;21.018;2023-06-05T03:51:59;100835.42;;;15.48;38.09
80248;BME280;69560;52.206;21.018;2023-06-05T03:54:30;100840.33;;;15.50;38.17
80248;BME280;69560;52.206;21.018;2023-06-05T03:57:00;100840.24;;;15.50;38.20
80248;BME280;69560;52.206;21.018;2023-06-05T03:59:31;100841.85;;;15.53;38.31
80248;BME280;69560;52.206;21.018;2023-06-05T04:02:08;100844.55;;;15.59;38.54
80248;BME280;69560;52.206;21.018;2023-06-05T04:04:35;100844.98;;;15.63;38.51
80248;BME280;69560;52.206;21.018;2023-06-05T04:07:08;100842.52;;;15.64;38.33
80248;BME280;69560;52.206;21.018;2023-06-05T04:09:47;100845.54;;;15.63;38.33
80248;BME280;69560;52.206;21.018;2023-06-05T04:12:16;100839.58;;;15.67;38.37
80248;BME280;69560;52.206;21.018;2023-06-05T04:14:48;100845.39;;;15.73;38.50
80248;BME280;69560;52.206;21.018;2023-06-05T04:17:19;100846.77;;;15.76;38.27
80248;BME280;69560;52.206;21.018;2023-06-05T04:19:50;100845.20;;;15.81;38.30
80248;BME280;69560;52.206;21.018;2023-06-05T04:22:35;100849.96;;;15.87;38.32
80248;BME280;69560;52.206;21.018;2023-06-05T04:25:02;100848.33;;;15.94;38.48
80248;BME280;69560;52.206;21.018;2023-06-05T04:27:38;100851.34;;;15.99;38.31
80248;BME280;69560;52.206;21.018;2023-06-05T04:30:09;100848.34;;;16.04;38.41
80248;BME280;69560;52.206;21.018;2023-06-05T04:32:37;100851.89;;;16.10;38.43
80248;BME280;69560;52.206;21.018;2023-06-05T04:35:17;100853.58;;;16.13;38.25
80248;BME280;69560;52.206;21.018;2023-06-05T04:37:52;100851.59;;;16.12;38.06
80248;BME280;69560;52.206;21.018;2023-06-05T04:40:20;100857.25;;;16.12;38.06
80248;BME280;69560;52.206;21.018;2023-06-05T04:42:54;100857.84;;;16.18;38.20
80248;BME280;69560;52.206;21.018;2023-06-05T04:45:21;100860.94;;;16.25;38.35
80248;BME280;69560;52.206;21.018;2023-06-05T04:47:49;100864.66;;;16.32;38.31
80248;BME280;69560;52.206;21.018;2023-06-05T04:50:27;100864.05;;;16.39;38.32
80248;BME280;69560;52.206;21.018;2023-06-05T04:52:59;100863.63;;;16.47;38.35
80248;BME280;69560;52.206;21.018;2023-06-05T04:55:26;100863.68;;;16.56;38.48
80248;BME280;69560;52.206;21.018;2023-06-05T04:57:55;100863.64;;;16.61;38.45
80248;BME280;69560;52.206;21.018;2023-06-05T05:00:27;100866.64;;;16.68;38.33
80248;BME280;69560;52.206;21.018;2023-06-05T05:02:54;100860.80;;;16.74;38.27
80248;BME280;69560;52.206;21.018;2023-06-05T05:05:24;100863.22;;;16.79;38.26
80248;BME280;69560;52.206;21.018;2023-06-05T05:08:11;100862.84;;;16.86;38.32
80248;BME280;69560;52.206;21.018;2023-06-05T05:10:38;100862.23;;;16.91;38.27
80248;BME280;69560;52.206;21.018;2023-06-05T05:13:04;100860.41;;;16.96;38.30
80248;BME280;69560;52.206;21.018;2023-06-05T05:15:32;100864.60;;;17.05;38.24
80248;BME280;69560;52.206;21.018;2023-06-05T05:18:01;100866.88;;;17.15;38.23
80248;BME280;69560;52.206;21.018;2023-06-05T05:20:40;100864.88;;;17.25;38.30
80248;BME280;69560;52.206;21.018;2023-06-05T05:23:14;100869.47;;;17.34;38.20
80248;BME280;69560;52.206;21.018;2023-06-05T05:25:44;100870.36;;;17.45;38.11
80248;BME280;69560;52.206;21.018;2023-06-05T05:28:11;100870.80;;;17.53;37.81
80248;BME280;69560;52.206;21.018;2023-06-05T05:30:51;100871.52;;;17.62;37.79
80248;BME280;69560;52.206;21.018;2023-06-05T05:33:26;100867.69;;;17.70;37.50
80248;BME280;69560;52.206;21.018;2023-06-05T05:35:57;100870.09;;;17.78;37.44
80248;BME280;69560;52.206;21.018;2023-06-05T05:38:25;100868.80;;;17.87;37.42
80248;BME280;69560;52.206;21.018;2023-06-05T05:40:58;100871.44;;;17.97;37.27
80248;BME280;69560;52.206;21.018;2023-06-05T05:43:28;100870.63;;;18.07;37.09
80248;BME280;69560;52.206;21.018;2023-06-05T05:45:55;100869.25;;;18.15;37.08
80248;BME280;69560;52.206;21.018;2023-06-05T05:48:25;100870.13;;;18.23;36.93
80248;BME280;69560;52.206;21.018;2023-06-05T05:50:55;100871.88;;;18.33;36.83
80248;BME280;69560;52.206;21.018;2023-06-05T05:53:27;100869.69;;;18.44;36.69
80248;BME280;69560;52.206;21.018;2023-06-05T05:55:57;100865.11;;;18.48;36.43
80248;BME280;69560;52.206;21.018;2023-06-05T05:58:24;100874.00;;;18.57;36.48
80248;BME280;69560;52.206;21.018;2023-06-05T06:03:41;100874.80;;;18.77;36.19
80248;BME280;69560;52.206;21.018;2023-06-05T06:06:09;100876.95;;;18.85;36.01
80248;BME280;69560;52.206;21.018;2023-06-05T06:08:36;100876.91;;;18.91;35.81
80248;BME280;69560;52.206;21.018;2023-06-05T06:11:06;100882.63;;;19.01;35.81
80248;BME280;69560;52.206;21.018;2023-06-05T06:13:38;100880.90;;;19.12;35.77
80248;BME280;69560;52.206;21.018;2023-06-05T06:16:06;100881.31;;;19.24;35.69
80248;BME280;69560;52.206;21.018;2023-06-05T06:18:36;100880.55;;;19.34;35.53
80248;BME280;69560;52.206;21.018;2023-06-05T06:21:02;100885.64;;;19.45;35.33
80248;BME280;69560;52.206;21.018;2023-06-05T06:23:31;100885.01;;;19.53;35.09
80248;BME280;69560;52.206;21.018;2023-06-05T06:26:11;100884.16;;;19.60;34.98
80248;BME280;69560;52.206;21.018;2023-06-05T06:28:41;100884.81;;;19.69;34.91
80248;BME280;69560;52.206;21.018;2023-06-05T06:31:16;100883.38;;;19.78;34.83
80248;BME280;69560;52.206;21.018;2023-06-05T06:33:50;100886.77;;;19.87;34.80
80248;BME280;69560;52.206;21.018;2023-06-05T06:36:17;100885.14;;;19.97;34.64
80248;BME280;69560;52.206;21.018;2023-06-05T06:38:44;100881.20;;;20.05;34.36
80248;BME280;69560;52.206;21.018;2023-06-05T06:41:11;100881.62;;;20.12;34.21
80248;BME280;69560;52.206;21.018;2023-06-05T06:43:37;100883.59;;;20.19;34.15
80248;BME280;69560;52.206;21.018;2023-06-05T06:46:04;100882.40;;;20.26;34.04
80248;BME280;69560;52.206;21.018;2023-06-05T06:48:32;100880.08;;;20.33;33.83
80248;BME280;69560;52.206;21.018;2023-06-05T06:50:59;100880.88;;;20.41;33.89
80248;BME280;69560;52.206;21.018;2023-06-05T06:53:26;100878.38;;;20.49;33.65
80248;BME280;69560;52.206;21.018;2023-06-05T06:56:03;100877.90;;;20.55;33.60
80248;BME280;69560;52.206;21.018;2023-06-05T06:58:30;100881.68;;;20.62;33.46
80248;BME280;69560;52.206;21.018;2023-06-05T07:01:02;100878.58;;;20.67;33.40
80248;BME280;69560;52.206;21.018;2023-06-05T07:03:30;100872.92;;;20.73;33.36
80248;BME280;69560;52.206;21.018;2023-06-05T07:05:56;100873.23;;;20.83;33.32
80248;BME280;69560;52.206;21.018;2023-06-05T07:08:23;100875.69;;;20.91;33.02
80248;BME280;69560;52.206;21.018;2023-06-05T07:10:52;100878.35;;;20.97;32.73
80248;BME280;69560;52.206;21.018;2023-06-05T07:13:22;100875.18;;;20.99;32.04
80248;BME280;69560;52.206;21.018;2023-06-05T07:15:52;100878.80;;;21.01;31.86
80248;BME280;69560;52.206;21.018;2023-06-05T07:18:20;100878.27;;;21.06;31.86
80248;BME280;69560;52.206;21.018;2023-06-05T07:20:53;100882.52;;;21.12;31.88
80248;BME280;69560;52.206;21.018;2023-06-05T07:23:20;100883.10;;;21.18;31.59
80248;BME280;69560;52.206;21.018;2023-06-05T07:25:50;100880.80;;;21.25;31.64
80248;BME280;69560;52.206;21.018;2023-06-05T07:28:19;100883.92;;;21.32;31.47
80248;BME280;69560;52.206;21.018;2023-06-05T07:30:46;100886.88;;;21.41;31.20
80248;BME280;69560;52.206;21.018;2023-06-05T07:33:15;100884.16;;;21.49;31.08
80248;BME280;69560;52.206;21.018;2023-06-05T07:35:42;100879.41;;;21.59;30.92
80248;BME280;69560;52.206;21.018;2023-06-05T07:38:21;100882.55;;;21.69;30.65
80248;BME280;69560;52.206;21.018;2023-06-05T07:40:53;100881.71;;;21.77;30.46
80248;BME280;69560;52.206;21.018;2023-06-05T07:43:30;100882.16;;;21.85;30.37
80248;BME280;69560;52.206;21.018;2023-06-05T07:45:57;100876.98;;;21.92;30.25
80248;BME280;69560;52.206;21.018;2023-06-05T07:48:24;100877.48;;;21.99;30.11
80248;BME280;69560;52.206;21.018;2023-06-05T07:50:52;100880.13;;;22.05;29.89
80248;BME280;69560;52.206;21.018;2023-06-05T07:53:19;100879.15;;;22.10;29.81
80248;BME280;69560;52.206;21.018;2023-06-05T07:55:48;100874.98;;;22.18;29.76
80248;BME280;69560;52.206;21.018;2023-06-05T07:58:18;100871.83;;;22.26;29.51
80248;BME280;69560;52.206;21.018;2023-06-05T08:00:45;100873.81;;;22.33;29.30
80248;BME280;69560;52.206;21.018;2023-06-05T08:03:16;100875.08;;;22.42;29.21
80248;BME280;69560;52.206;21.018;2023-06-05T08:05:52;100876.48;;;22.54;28.87
80248;BME280;69560;52.206;21.018;2023-06-05T08:08:19;100877.15;;;22.65;28.71
80248;BME280;69560;52.206;21.018;2023-06-05T08:10:46;100874.94;;;22.76;28.70
80248;BME280;69560;52.206;21.018;2023-06-05T08:13:14;100880.64;;;22.88;28.32
80248;BME280;69560;52.206;21.018;2023-06-05T08:15:41;100873.28;;;23.00;28.21
80248;BME280;69560;52.206;21.018;2023-06-05T08:18:08;100874.95;;;23.12;28.17
80248;BME280;69560;52.206;21.018;2023-06-05T08:20:38;100873.45;;;23.24;27.81
80248;BME280;69560;52.206;21.018;2023-06-05T08:23:07;100872.72;;;23.33;27.68
80248;BME280;69560;52.206;21.018;2023-06-05T08:25:36;100874.52;;;23.43;27.52
80248;BME280;69560;52.206;21.018;2023-06-05T08:28:05;100876.02;;;23.55;27.44
80248;BME280;69560;52.206;21.018;2023-06-05T08:30:32;100872.60;;;23.66;27.38
80248;BME280;69560;52.206;21.018;2023-06-05T08:32:59;100875.19;;;23.79;27.14
80248;BME280;69560;52.206;21.018;2023-06-05T08:35:39;100874.09;;;23.90;26.82
80248;BME280;69560;52.206;21.018;2023-06-05T08:38:06;100875.59;;;24.01;26.62
80248;BME280;69560;52.206;21.018;2023-06-05T08:40:33;100873.38;;;24.13;26.50
80248;BME280;69560;52.206;21.018;2023-06-05T08:43:03;100876.80;;;24.24;26.15
80248;BME280;69560;52.206;21.018;2023-06-05T08:45:31;100877.62;;;24.30;25.91
80248;BME280;69560;52.206;21.018;2023-06-05T08:48:11;100877.66;;;24.31;25.79
80248;BME280;69560;52.206;21.018;2023-06-05T08:50:40;100877.61;;;24.36;25.62
80248;BME280;69560;52.206;21.018;2023-06-05T08:53:08;100877.27;;;24.42;25.65
80248;BME280;69560;52.206;21.018;2023-06-05T08:55:35;100874.23;;;24.50;25.62
80248;BME280;69560;52.206;21.018;2023-06-05T08:58:02;100871.90;;;24.55;25.61
80248;BME280;69560;52.206;21.018;2023-06-05T09:00:30;100871.41;;;24.63;25.55
80248;BME280;69560;52.206;21.018;2023-06-05T09:03:06;100867.52;;;24.72;25.44
80248;BME280;69560;52.206;21.018;2023-06-05T09:05:36;100867.39;;;24.83;25.44
80248;BME280;69560;52.206;21.018;2023-06-05T09:08:06;100861.27;;;24.87;25.15
80248;BME280;69560;52.206;21.018;2023-06-05T09:10:37;100862.42;;;24.86;24.84
80248;BME280;69560;52.206;21.018;2023-06-05T09:13:04;100860.05;;;24.87;24.95
80248;BME280;69560;52.206;21.018;2023-06-05T09:15:34;100856.66;;;24.92;25.10
80248;BME280;69560;52.206;21.018;2023-06-05T09:18:06;100851.74;;;24.99;25.13
80248;BME280;69560;52.206;21.018;2023-06-05T09:20:46;100855.78;;;25.08;24.96
80248;BME280;69560;52.206;21.018;2023-06-05T09:23:31;100856.10;;;25.08;24.80
80248;BME280;69560;52.206;21.018;2023-06-05T09:26:09;100859.27;;;25.10;24.78
80248;BME280;69560;52.206;21.018;2023-06-05T09:28:57;100855.61;;;25.16;24.72
80248;BME280;69560;52.206;21.018;2023-06-05T09:31:52;100856.98;;;25.24;24.63
80248;BME280;69560;52.206;21.018;2023-06-05T09:34:35;100858.66;;;25.25;24.27
80248;BME280;69560;52.206;21.018;2023-06-05T09:37:07;100849.71;;;25.25;24.32
80248;BME280;69560;52.206;21.018;2023-06-05T09:39:38;100844.97;;;25.32;24.44
80248;BME280;69560;52.206;21.018;2023-06-05T09:42:06;100843.42;;;25.40;24.29
80248;BME280;69560;52.206;21.018;2023-06-05T09:44:38;100844.95;;;25.48;24.08
80248;BME280;69560;52.206;21.018;2023-06-05T09:47:10;100841.98;;;25.54;24.03
80248;BME280;69560;52.206;21.018;2023-06-05T09:52:12;100837.98;;;25.67;24.07
80248;BME280;69560;52.206;21.018;2023-06-05T09:54:46;100838.38;;;25.77;24.07
80248;BME280;69560;52.206;21.018;2023-06-05T09:57:18;100830.98;;;25.80;23.54
80248;BME280;69560;52.206;21.018;2023-06-05T09:59:53;100828.90;;;25.84;23.65
80248;BME280;69560;52.206;21.018;2023-06-05T10:02:25;100831.17;;;25.93;23.88
80248;BME280;69560;52.206;21.018;2023-06-05T10:05:02;100826.48;;;26.00;23.53
80248;BME280;69560;52.206;21.018;2023-06-05T10:07:39;100823.95;;;26.05;23.52
80248;BME280;69560;52.206;21.018;2023-06-05T10:10:09;100823.89;;;26.10;23.33
80248;BME280;69560;52.206;21.018;2023-06-05T10:12:36;100820.55;;;26.10;23.19
80248;BME280;69560;52.206;21.018;2023-06-05T10:15:06;100819.63;;;26.11;23.40
80248;BME280;69560;52.206;21.018;2023-06-05T10:17:35;100818.61;;;26.17;23.27
80248;BME280;69560;52.206;21.018;2023-06-05T10:20:08;100821.29;;;26.23;23.15
80248;BME280;69560;52.206;21.018;2023-06-05T10:22:36;100815.70;;;26.30;23.07
80248;BME280;69560;52.206;21.018;2023-06-05T10:25:07;100811.05;;;26.38;23.12
80248;BME280;69560;52.206;21.018;2023-06-05T10:36:22;100813.87;;;26.68;22.53
80248;BME280;69560;52.206;21.018;2023-06-05T10:38:57;100816.70;;;26.73;22.59
80248;BME280;69560;52.206;21.018;2023-06-05T10:41:27;100815.84;;;26.81;22.75
80248;BME280;69560;52.206;21.018;2023-06-05T10:43:54;100809.92;;;26.89;22.47
80248;BME280;69560;52.206;21.018;2023-06-05T10:46:35;100804.75;;;26.98;22.26
80248;BME280;69560;52.206;21.018;2023-06-05T10:51:39;100799.59;;;27.17;22.40
80248;BME280;69560;52.206;21.018;2023-06-05T10:54:07;100802.72;;;27.22;22.23
80248;BME280;69560;52.206;21.018;2023-06-05T10:56:56;100800.00;;;27.23;22.03
80248;BME280;69560;52.206;21.018;2023-06-05T10:59:34;100800.02;;;27.23;21.93
80248;BME280;69560;52.206;21.018;2023-06-05T11:07:21;100793.23;;;27.23;21.73
80248;BME280;69560;52.206;21.018;2023-06-05T11:17:45;100784.38;;;27.23;21.72
80248;BME280;69560;52.206;21.018;2023-06-05T11:23:08;100785.00;;;27.34;21.75
80248;BME280;69560;52.206;21.018;2023-06-05T11:25:38;100782.52;;;27.43;21.80
80248;BME280;69560;52.206;21.018;2023-06-05T11:28:08;100780.98;;;27.53;21.78
80248;BME280;69560;52.206;21.018;2023-06-05T11:30:40;100785.21;;;27.64;21.82
80248;BME280;69560;52.206;21.018;2023-06-05T11:33:10;100779.80;;;27.75;21.67
80248;BME280;69560;52.206;21.018;2023-06-05T11:35:40;100772.33;;;27.87;21.93
80248;BME280;69560;52.206;21.018;2023-06-05T11:38:09;100772.06;;;28.00;21.85
80248;BME280;69560;52.206;21.018;2023-06-05T11:40:36;100769.38;;;28.10;21.62
80248;BME280;69560;52.206;21.018;2023-06-05T11:43:05;100768.89;;;28.17;21.32
80248;BME280;69560;52.206;21.018;2023-06-05T11:45:41;100766.55;;;28.22;21.24
80248;BME280;69560;52.206;21.018;2023-06-05T11:48:13;100762.17;;;28.27;21.18
80248;BME280;69560;52.206;21.018;2023-06-05T11:50:55;100764.61;;;28.29;21.12
80248;BME280;69560;52.206;21.018;2023-06-05T11:53:22;100761.38;;;28.32;20.98
80248;BME280;69560;52.206;21.018;2023-06-05T11:55:48;100756.55;;;28.36;21.10
80248;BME280;69560;52.206;21.018;2023-06-05T11:58:22;100757.33;;;28.42;21.19
80248;BME280;69560;52.206;21.018;2023-06-05T12:00:49;100757.19;;;28.50;21.25
80248;BME280;69560;52.206;21.018;2023-06-05T12:03:20;100758.42;;;28.56;21.22
80248;BME280;69560;52.206;21.018;2023-06-05T12:05:48;100758.90;;;28.62;21.09
80248;BME280;69560;52.206;21.018;2023-06-05T12:08:24;100757.77;;;28.67;21.01
80248;BME280;69560;52.206;21.018;2023-06-05T12:10:52;100754.86;;;28.73;20.96
80248;BME280;69560;52.206;21.018;2023-06-05T12:13:19;100754.15;;;28.79;20.96
80248;BME280;69560;52.206;21.018;2023-06-05T12:15:56;100749.79;;;28.85;20.89
80248;BME280;69560;52.206;21.018;2023-06-05T12:18:33;100750.64;;;28.90;20.92
80248;BME280;69560;52.206;21.018;2023-06-05T12:21:01;100748.14;;;28.92;20.67
80248;BME280;69560;52.206;21.018;2023-06-05T12:23:31;100743.71;;;28.87;20.58
80248;BME280;69560;52.206;21.018;2023-06-05T12:26:03;100748.45;;;28.87;20.58
80248;BME280;69560;52.206;21.018;2023-06-05T12:28:31;100738.30;;;28.86;20.47
80248;BME280;69560;52.206;21.018;2023-06-05T12:31:00;100733.70;;;28.87;20.43
80248;BME280;69560;52.206;21.018;2023-06-05T12:33:27;100735.69;;;28.88;20.46
80248;BME280;69560;52.206;21.018;2023-06-05T12:36:06;100739.50;;;28.89;20.24
80248;BME280;69560;52.206;21.018;2023-06-05T12:38:37;100735.48;;;28.84;20.11
80248;BME280;69560;52.206;21.018;2023-06-05T12:41:05;100737.51;;;28.74;20.14
80248;BME280;69560;52.206;21.018;2023-06-05T12:43:34;100738.67;;;28.67;20.06
80248;BME280;69560;52.206;21.018;2023-06-05T12:46:02;100736.96;;;28.60;19.98
80248;BME280;69560;52.206;21.018;2023-06-05T12:48:29;100738.00;;;28.59;20.02
80248;BME280;69560;52.206;21.018;2023-06-05T12:50:56;100733.21;;;28.56;19.98
80248;BME280;69560;52.206;21.018;2023-06-05T12:53:22;100727.40;;;28.51;19.97
80248;BME280;69560;52.206;21.018;2023-06-05T12:55:49;100727.25;;;28.46;19.87
80248;BME280;69560;52.206;21.018;2023-06-05T12:58:16;100722.52;;;28.40;19.96
80248;BME280;69560;52.206;21.018;2023-06-05T13:00:43;100721.24;;;28.38;20.03
80248;BME280;69560;52.206;21.018;2023-06-05T13:03:13;100716.77;;;28.38;20.11
80248;BME280;69560;52.206;21.018;2023-06-05T13:05:40;100709.11;;;28.38;20.23
80248;BME280;69560;52.206;21.018;2023-06-05T13:08:10;100706.44;;;28.40;20.30
80248;BME280;69560;52.206;21.018;2023-06-05T13:10:40;100707.60;;;28.41;20.26
80248;BME280;69560;52.206;21.018;2023-06-05T13:13:06;100707.73;;;28.41;20.24
80248;BME280;69560;52.206;21.018;2023-06-05T13:15:36;100709.20;;;28.42;20.07
80248;BME280;69560;52.206;21.018;2023-06-05T13:18:05;100702.21;;;28.39;20.03
80248;BME280;69560;52.206;21.018;2023-06-05T13:20:32;100702.42;;;28.33;20.01
80248;BME280;69560;52.206;21.018;2023-06-05T13:23:00;100699.88;;;28.28;20.06
80248;BME280;69560;52.206;21.018;2023-06-05T13:25:27;100696.89;;;28.24;19.98
80248;BME280;69560;52.206;21.018;2023-06-05T13:27:57;100693.48;;;28.11;19.69
80248;BME280;69560;52.206;21.018;2023-06-05T13:30:24;100687.52;;;27.97;19.75
80248;BME280;69560;52.206;21.018;2023-06-05T13:32:53;100685.42;;;27.91;19.80
80248;BME280;69560;52.206;21.018;2023-06-05T13:35:22;100686.29;;;27.83;19.90
80248;BME280;69560;52.206;21.018;2023-06-05T13:37:49;100685.59;;;27.73;19.92
80248;BME280;69560;52.206;21.018;2023-06-05T13:40:17;100686.46;;;27.68;20.05
80248;BME280;69560;52.206;21.018;2023-06-05T13:42:49;100684.69;;;27.64;20.09
80248;BME280;69560;52.206;21.018;2023-06-05T13:45:17;100682.23;;;27.61;20.29